createdAt,value
2018-12-25T00:01:00.909Z,77.88
2018-12-25T00:03:30.577Z,78.02
2018-12-25T00:05:58.321Z,77.66
2018-12-25T00:08:26.286Z,77.70
2018-12-25T00:10:54.109Z,76.94
2018-12-25T00:13:21.911Z,76.88
2018-12-25T00:15:49.715Z,77.33
2018-12-25T00:18:17.661Z,76.92
2018-12-25T00:20:45.471Z,76.65
2018-12-25T00:23:13.452Z,76.94
2018-12-25T00:25:41.387Z,77.37
2018-12-25T00:28:09.146Z,78.53
2018-12-25T00:30:37.088Z,79.27
2018-12-25T00:33:05.204Z,78.72
2018-12-25T00:35:32.962Z,78.40
2018-12-25T00:38:00.932Z,78.48
2018-12-25T00:40:28.717Z,78.19
2018-12-25T00:42:56.444Z,77.97
2018-12-25T00:45:24.207Z,78.77
2018-12-25T00:47:55.065Z,78.91
2018-12-25T00:50:22.839Z,79.06
2018-12-25T00:52:50.810Z,79.01
2018-12-25T00:55:18.568Z,79.59
2018-12-25T00:57:46.493Z,79.63
2018-12-25T01:00:14.512Z,78.82
2018-12-25T01:02:42.241Z,78.27
2018-12-25T01:05:10.014Z,78.90
2018-12-25T01:07:38.046Z,79.19
2018-12-25T01:10:05.879Z,78.86
2018-12-25T01:12:37.114Z,78.76
2018-12-25T01:15:05.972Z,78.70
2018-12-25T01:17:36.603Z,79.07
2018-12-25T01:20:04.496Z,78.26
2018-12-25T01:22:32.424Z,78.38
2018-12-25T01:25:00.509Z,78.13
2018-12-25T01:27:28.290Z,77.48
2018-12-25T01:29:56.043Z,77.33
2018-12-25T01:32:24.619Z,77.77
2018-12-25T01:34:52.390Z,77.68
2018-12-25T01:37:20.190Z,77.55
2018-12-25T01:39:47.916Z,77.87
2018-12-25T01:42:15.729Z,77.54
2018-12-25T01:44:43.677Z,77.29
2018-12-25T01:47:11.453Z,77.71
2018-12-25T01:49:39.634Z,77.47
2018-12-25T01:52:07.424Z,77.97
2018-12-25T01:54:35.225Z,77.93
2018-12-25T01:57:03.011Z,78.44
2018-12-25T01:59:30.908Z,78.01
2018-12-25T02:01:58.741Z,78.17
2018-12-25T02:04:26.487Z,78.10
2018-12-25T02:06:54.274Z,79.44
2018-12-25T02:09:22.039Z,80.10
2018-12-25T02:11:51.438Z,79.59
2018-12-25T02:14:19.433Z,78.73
2018-12-25T02:16:49.589Z,79.26
2018-12-25T02:19:17.545Z,79.52
2018-12-25T02:21:45.360Z,79.53
2018-12-25T02:24:15.383Z,79.17
2018-12-25T02:26:44.363Z,79.27
2018-12-25T02:29:14.973Z,79.89
2018-12-25T02:31:42.724Z,79.32
2018-12-25T02:34:10.644Z,78.48
2018-12-25T02:36:39.521Z,78.55
2018-12-25T02:39:07.781Z,79.07
2018-12-25T02:41:35.638Z,79.40
2018-12-25T02:44:03.693Z,78.45
2018-12-25T02:46:31.556Z,79.81
2018-12-25T02:48:59.466Z,79.94
2018-12-25T02:51:27.568Z,80.49
2018-12-25T02:53:55.346Z,79.99
2018-12-25T02:56:23.333Z,80.11
2018-12-25T02:58:51.867Z,79.29
2018-12-25T03:01:19.609Z,79.23
2018-12-25T03:03:47.401Z,78.41
2018-12-25T03:06:15.449Z,78.87
2018-12-25T03:08:43.215Z,79.09
2018-12-25T03:11:12.753Z,79.15
2018-12-25T03:13:40.700Z,79.08
2018-12-25T03:16:08.459Z,79.77
2018-12-25T03:18:38.774Z,79.46
2018-12-25T03:21:06.537Z,79.23
2018-12-25T03:23:34.861Z,79.59
2018-12-25T03:26:02.750Z,79.04
2018-12-25T03:28:30.520Z,78.43
2018-12-25T03:30:58.458Z,79.06
2018-12-25T03:33:26.412Z,79.02
2018-12-25T03:35:54.191Z,79.36
2018-12-25T03:38:21.954Z,78.84
2018-12-25T03:40:49.700Z,79.27
2018-12-25T03:43:17.465Z,79.91
2018-12-25T03:45:45.415Z,79.38
2018-12-25T03:48:13.234Z,79.36
2018-12-25T03:50:41.139Z,79.84
2018-12-25T03:53:08.910Z,79.54
2018-12-25T03:55:37.093Z,79.85
2018-12-25T03:58:04.877Z,79.54
2018-12-25T04:00:34.515Z,79.76
2018-12-25T04:03:02.709Z,79.58
2018-12-25T04:05:30.440Z,80.45
2018-12-25T04:07:58.186Z,80.60
2018-12-25T04:10:27.604Z,80.09
2018-12-25T04:12:55.372Z,79.57
2018-12-25T04:15:25.421Z,78.87
2018-12-25T04:17:53.185Z,78.22
2018-12-25T04:20:21.089Z,78.20
2018-12-25T04:22:48.852Z,78.74
2018-12-25T04:25:16.633Z,79.20
2018-12-25T04:27:44.385Z,78.87
2018-12-25T04:30:12.387Z,78.05
2018-12-25T04:32:40.180Z,77.92
2018-12-25T04:35:09.504Z,78.45
2018-12-25T04:37:37.232Z,78.46
2018-12-25T04:40:05.203Z,77.15
2018-12-25T04:42:32.922Z,77.72
2018-12-25T04:45:01.943Z,77.53
2018-12-25T04:47:29.693Z,76.53
2018-12-25T04:49:57.628Z,77.41
2018-12-25T04:52:25.714Z,77.28
2018-12-25T04:54:53.473Z,78.03
2018-12-25T04:57:21.446Z,78.49
2018-12-25T04:59:49.208Z,79.32
2018-12-25T05:02:17.142Z,78.98
2018-12-25T05:04:44.918Z,78.77
2018-12-25T05:07:13.086Z,78.17
2018-12-25T05:09:42.643Z,78.50
2018-12-25T05:12:10.429Z,79.27
2018-12-25T05:14:38.186Z,79.41
2018-12-25T05:17:05.932Z,79.22
2018-12-25T05:19:33.702Z,79.19
2018-12-25T05:22:01.704Z,79.17
2018-12-25T05:24:29.478Z,79.10
2018-12-25T05:27:00.390Z,79.35
2018-12-25T05:29:28.110Z,79.41
2018-12-25T05:31:56.060Z,78.90
2018-12-25T05:34:23.839Z,78.71
2018-12-25T05:36:51.806Z,78.36
2018-12-25T05:39:19.531Z,78.14
2018-12-25T05:41:47.293Z,78.11
2018-12-25T05:44:15.025Z,78.33
2018-12-25T05:46:42.981Z,78.21
2018-12-25T05:49:12.761Z,78.14
2018-12-25T05:51:41.054Z,78.76
2018-12-25T05:54:08.839Z,78.48
2018-12-25T05:56:36.831Z,78.81
2018-12-25T05:59:04.613Z,79.15
2018-12-25T06:01:32.583Z,78.64
2018-12-25T06:04:02.111Z,78.79
2018-12-25T06:06:29.898Z,79.54
2018-12-25T06:08:57.619Z,79.27
2018-12-25T06:11:25.643Z,79.47
2018-12-25T06:13:53.447Z,78.77
2018-12-25T06:16:21.318Z,79.06
2018-12-25T06:18:51.069Z,78.67
2018-12-25T06:21:19.029Z,78.39
2018-12-25T06:23:46.871Z,78.15
2018-12-25T06:26:14.798Z,77.74
2018-12-25T06:28:42.569Z,77.83
2018-12-25T06:31:10.550Z,78.21
2018-12-25T06:33:38.744Z,77.46
2018-12-25T06:36:06.494Z,77.42
2018-12-25T06:38:34.502Z,77.21
2018-12-25T06:41:02.298Z,78.22
2018-12-25T06:43:30.088Z,78.59
2018-12-25T06:45:58.064Z,77.51
2018-12-25T06:48:26.662Z,78.24
2018-12-25T06:50:54.416Z,78.57
2018-12-25T06:53:22.226Z,79.22
2018-12-25T06:55:49.979Z,79.18
2018-12-25T06:58:17.983Z,79.20
2018-12-25T07:00:45.784Z,78.76
2018-12-25T07:03:13.724Z,77.45
2018-12-25T07:05:41.484Z,77.13
2018-12-25T07:08:09.504Z,77.95
2018-12-25T07:10:37.282Z,78.33
2018-12-25T07:13:05.628Z,77.66
2018-12-25T07:15:33.578Z,77.20
2018-12-25T07:18:01.397Z,77.34
2018-12-25T07:20:31.463Z,77.51
2018-12-25T07:22:59.359Z,78.20
2018-12-25T07:25:27.123Z,78.27
2018-12-25T07:27:55.090Z,78.20
2018-12-25T07:30:22.837Z,78.40
2018-12-25T07:32:51.683Z,77.51
2018-12-25T07:35:19.438Z,77.80
2018-12-25T07:37:47.287Z,77.84
2018-12-25T07:40:15.053Z,76.84
2018-12-25T07:42:43.015Z,77.42
2018-12-25T07:45:10.749Z,77.09
2018-12-25T07:47:38.513Z,76.85
2018-12-25T07:50:06.723Z,76.30
2018-12-25T07:52:34.693Z,75.48
2018-12-25T07:55:02.498Z,76.06
2018-12-25T07:57:31.625Z,76.06
2018-12-25T07:59:59.394Z,76.68
2018-12-25T08:02:27.345Z,76.86
2018-12-25T08:04:58.209Z,76.50
2018-12-25T08:07:25.960Z,75.88
2018-12-25T08:09:53.726Z,75.23
2018-12-25T08:12:21.700Z,75.79
2018-12-25T08:14:49.795Z,75.72
2018-12-25T08:17:17.710Z,75.80
2018-12-25T08:19:45.913Z,75.22
2018-12-25T08:22:16.511Z,76.04
2018-12-25T08:24:44.310Z,75.35
2018-12-25T08:27:12.104Z,75.19
2018-12-25T08:29:40.086Z,74.83
2018-12-25T08:32:07.828Z,74.82
2018-12-25T08:34:35.846Z,75.09
2018-12-25T08:37:03.647Z,74.73
2018-12-25T08:39:31.453Z,74.51
2018-12-25T08:41:59.194Z,74.80
2018-12-25T08:44:27.155Z,75.02
2018-12-25T08:46:54.878Z,74.72
2018-12-25T08:49:22.679Z,74.85
2018-12-25T08:51:50.425Z,74.27
2018-12-25T08:54:18.241Z,74.93
2018-12-25T08:56:46.064Z,73.91
2018-12-25T08:59:14.031Z,74.04
2018-12-25T09:01:41.864Z,73.54
2018-12-25T09:04:09.867Z,73.78
2018-12-25T09:06:37.644Z,74.05
2018-12-25T09:09:07.173Z,73.64
2018-12-25T09:11:35.041Z,73.24
2018-12-25T09:14:02.989Z,72.60
2018-12-25T09:16:30.773Z,73.85
2018-12-25T09:18:58.583Z,73.01
2018-12-25T09:21:27.589Z,73.70
2018-12-25T09:23:55.649Z,74.20
2018-12-25T09:26:23.465Z,73.54
2018-12-25T09:28:51.243Z,73.59
2018-12-25T09:31:19.042Z,73.52
2018-12-25T09:33:46.987Z,72.17
2018-12-25T09:36:14.733Z,72.87
2018-12-25T09:38:42.478Z,72.35
2018-12-25T09:41:10.565Z,71.82
2018-12-25T09:43:38.310Z,72.19
2018-12-25T09:46:06.331Z,72.11
2018-12-25T09:48:34.046Z,70.33
2018-12-25T09:51:01.945Z,70.25
2018-12-25T09:53:29.756Z,70.09
2018-12-25T09:55:57.558Z,70.05
2018-12-25T09:58:25.306Z,70.17
2018-12-25T10:00:53.190Z,70.32
2018-12-25T10:03:20.917Z,70.52
2018-12-25T10:05:49.110Z,69.61
2018-12-25T10:08:16.900Z,70.59
2018-12-25T10:10:47.674Z,70.70
2018-12-25T10:13:15.490Z,69.92
2018-12-25T10:15:43.376Z,70.13
2018-12-25T10:18:11.210Z,70.84
2018-12-25T10:20:38.971Z,70.27
2018-12-25T10:23:06.777Z,70.61
2018-12-25T10:25:36.038Z,70.69
2018-12-25T10:28:03.827Z,70.85
2018-12-25T10:30:34.894Z,71.86
2018-12-25T10:33:02.718Z,71.66
2018-12-25T10:35:30.495Z,71.32
2018-12-25T10:37:58.257Z,70.45
2018-12-25T10:40:26.081Z,70.07
2018-12-25T10:42:53.902Z,70.48
2018-12-25T10:45:21.698Z,71.03
2018-12-25T10:47:49.678Z,70.43
2018-12-25T10:50:17.782Z,70.73
2018-12-25T10:52:45.773Z,70.10
2018-12-25T10:55:13.549Z,69.88
2018-12-25T10:57:41.517Z,69.60
2018-12-25T11:00:12.591Z,69.22
2018-12-25T11:02:40.534Z,68.28
2018-12-25T11:05:08.527Z,68.85
2018-12-25T11:07:36.317Z,67.70
2018-12-25T11:10:05.091Z,66.99
2018-12-25T11:12:33.078Z,65.16
2018-12-25T11:15:01.114Z,63.92
2018-12-25T11:17:28.912Z,64.29
2018-12-25T11:19:56.723Z,63.95
2018-12-25T11:22:25.007Z,64.98
2018-12-25T11:24:55.037Z,64.00
2018-12-25T11:27:23.408Z,62.78
2018-12-25T11:29:51.326Z,61.25
2018-12-25T11:32:19.133Z,59.69
2018-12-25T11:34:48.950Z,58.10
2018-12-25T11:37:16.936Z,58.64
2018-12-25T11:39:44.661Z,60.01
2018-12-25T11:42:15.444Z,61.17
2018-12-25T11:44:43.227Z,62.59
2018-12-25T11:47:11.223Z,65.39
2018-12-25T11:49:39.006Z,66.65
2018-12-25T11:52:07.216Z,68.21
2018-12-25T11:54:35.007Z,68.89
2018-12-25T11:57:02.769Z,69.15
2018-12-25T11:59:30.564Z,69.10
2018-12-25T12:01:58.486Z,69.49
2018-12-25T12:04:26.279Z,70.17
2018-12-25T12:06:54.420Z,70.64
2018-12-25T12:09:22.244Z,70.81
2018-12-25T12:11:50.209Z,71.39
2018-12-25T12:14:17.990Z,71.75
2018-12-25T12:16:45.782Z,71.58
2018-12-25T12:19:14.912Z,71.72
2018-12-25T12:21:42.686Z,71.73
2018-12-25T12:24:10.640Z,72.83
2018-12-25T12:26:38.603Z,72.90
2018-12-25T12:29:06.369Z,72.49
2018-12-25T12:31:34.344Z,72.54
2018-12-25T12:34:02.139Z,72.78
2018-12-25T12:36:31.473Z,72.64
2018-12-25T12:39:01.456Z,71.76
2018-12-25T12:41:30.191Z,71.68
2018-12-25T12:44:00.849Z,71.78
2018-12-25T12:46:31.921Z,71.53
2018-12-25T12:49:02.835Z,72.50
2018-12-25T12:51:33.737Z,72.13
2018-12-25T12:54:01.518Z,72.38
2018-12-25T12:56:29.302Z,72.88
2018-12-25T12:58:57.570Z,73.29
2018-12-25T13:01:25.335Z,73.31
2018-12-25T13:03:53.305Z,73.52
2018-12-25T13:06:21.259Z,74.03
2018-12-25T13:08:48.983Z,74.59
2018-12-25T13:11:16.779Z,73.57
2018-12-25T13:13:44.736Z,73.83
2018-12-25T13:16:12.513Z,73.56
2018-12-25T13:18:42.221Z,73.46
2018-12-25T13:21:10.036Z,72.91
2018-12-25T13:23:39.098Z,72.61
2018-12-25T13:26:07.915Z,72.79
2018-12-25T13:28:38.787Z,72.42
2018-12-25T13:31:08.595Z,71.82
2018-12-25T13:33:36.351Z,70.86
2018-12-25T13:36:05.029Z,71.27
2018-12-25T13:38:44.968Z,72.21
2018-12-25T13:41:12.755Z,71.15
2018-12-25T13:43:40.518Z,71.30
2018-12-25T13:46:08.384Z,70.62
2018-12-25T13:48:36.286Z,71.51
2018-12-25T13:51:04.075Z,71.82
2018-12-25T13:53:32.006Z,71.07
2018-12-25T13:55:59.804Z,70.46
2018-12-25T13:58:27.721Z,69.72
2018-12-25T14:00:55.527Z,69.33
2018-12-25T14:03:23.457Z,69.39
2018-12-25T14:05:51.289Z,69.50
2018-12-25T14:08:20.011Z,69.41
2018-12-25T14:10:47.809Z,69.30
2018-12-25T14:13:15.844Z,68.62
2018-12-25T14:15:43.616Z,69.27
2018-12-25T14:18:11.406Z,69.34
2018-12-25T14:20:39.218Z,69.00
2018-12-25T14:23:11.138Z,69.40
2018-12-25T14:25:36.880Z,69.28
2018-12-25T14:28:04.658Z,68.85
2018-12-25T14:30:32.628Z,69.59
2018-12-25T14:33:00.392Z,69.99
2018-12-25T14:35:28.341Z,70.43
2018-12-25T14:37:56.139Z,70.51
2018-12-25T14:40:23.922Z,71.29
2018-12-25T14:42:51.896Z,71.53
2018-12-25T14:45:19.660Z,72.32
2018-12-25T14:47:47.489Z,72.51
2018-12-25T14:50:15.451Z,72.95
2018-12-25T14:52:46.356Z,73.19
2018-12-25T14:55:14.111Z,72.39
2018-12-25T14:57:43.287Z,72.41
2018-12-25T15:00:11.199Z,73.54
2018-12-25T15:02:38.957Z,73.00
2018-12-25T15:05:06.911Z,73.43
2018-12-25T15:07:34.664Z,73.36
2018-12-25T15:10:02.407Z,72.82
2018-12-25T15:12:30.485Z,73.89
2018-12-25T15:14:59.958Z,73.28
2018-12-25T15:17:29.755Z,72.72
2018-12-25T15:20:00.399Z,73.20
2018-12-25T15:22:28.173Z,72.78
2018-12-25T15:24:55.955Z,72.54
2018-12-25T15:27:23.801Z,72.73
2018-12-25T15:29:54.711Z,73.03
2018-12-25T15:32:22.763Z,73.10
2018-12-25T15:34:51.793Z,73.60
2018-12-25T15:37:19.555Z,73.66
2018-12-25T15:39:47.320Z,73.44
2018-12-25T15:42:15.104Z,74.08
2018-12-25T15:44:42.873Z,73.89
2018-12-25T15:47:10.671Z,74.37
2018-12-25T15:49:38.635Z,74.26
2018-12-25T15:52:06.454Z,74.51
2018-12-25T15:54:34.219Z,74.58
2018-12-25T15:57:03.456Z,74.48
2018-12-25T15:59:31.386Z,74.08
2018-12-25T16:01:59.146Z,73.57
2018-12-25T16:04:27.108Z,73.66
2018-12-25T16:06:54.904Z,73.77
2018-12-25T16:09:23.478Z,73.56
2018-12-25T16:11:51.414Z,73.85
2018-12-25T16:14:19.485Z,74.17
2018-12-25T16:16:47.213Z,73.65
2018-12-25T16:19:15.016Z,72.31
2018-12-25T16:21:43.009Z,72.91
2018-12-25T16:24:11.990Z,72.76
2018-12-25T16:26:39.953Z,72.46
2018-12-25T16:29:07.937Z,72.66
2018-12-25T16:31:38.576Z,72.42
2018-12-25T16:34:06.383Z,72.27
2018-12-25T16:36:34.273Z,71.72
2018-12-25T16:39:03.690Z,71.72
2018-12-25T16:41:32.864Z,71.83
2018-12-25T16:44:00.751Z,72.13
2018-12-25T16:46:28.525Z,71.72
2018-12-25T16:48:56.367Z,72.02
2018-12-25T16:51:24.313Z,71.96
2018-12-25T16:53:53.655Z,72.09
2018-12-25T16:56:21.671Z,72.56
2018-12-25T16:58:49.435Z,71.28
2018-12-25T17:01:17.393Z,71.11
2018-12-25T17:03:45.208Z,71.19
2018-12-25T17:06:12.949Z,71.58
2018-12-25T17:08:40.776Z,71.25
2018-12-25T17:11:08.549Z,71.42
2018-12-25T17:13:36.465Z,71.44
2018-12-25T17:16:04.403Z,71.49
2018-12-25T17:18:32.220Z,71.58
2018-12-25T17:21:00.138Z,71.94
2018-12-25T17:23:27.936Z,71.96
2018-12-25T17:25:55.926Z,71.91
2018-12-25T17:28:27.758Z,71.92
2018-12-25T17:30:53.618Z,71.99
2018-12-25T17:33:22.588Z,72.10
2018-12-25T17:35:50.635Z,71.81
2018-12-25T17:38:18.588Z,71.61
2018-12-25T17:40:47.918Z,71.59
2018-12-25T17:43:18.570Z,71.15
2018-12-25T17:45:46.576Z,71.79
2018-12-25T17:48:14.331Z,71.22
2018-12-25T17:50:42.583Z,71.17
2018-12-25T17:53:10.370Z,70.63
2018-12-25T17:55:41.233Z,70.34
2018-12-25T17:58:09.115Z,70.09
2018-12-25T18:00:37.116Z,70.17
2018-12-25T18:03:07.059Z,70.11
2018-12-25T18:05:38.002Z,69.83
2018-12-25T18:08:08.944Z,70.00
2018-12-25T18:10:36.762Z,70.29
2018-12-25T18:13:04.987Z,69.08
2018-12-25T18:15:32.792Z,69.59
2018-12-25T18:18:00.619Z,70.62
2018-12-25T18:20:31.733Z,70.38
2018-12-25T18:23:01.880Z,68.84
2018-12-25T18:25:29.629Z,68.78
2018-12-25T18:27:59.636Z,69.07
2018-12-25T18:30:27.545Z,68.38
2018-12-25T18:32:57.262Z,68.21
2018-12-25T18:35:25.259Z,68.04
2018-12-25T18:37:53.257Z,67.55
2018-12-25T18:40:20.996Z,67.87
2018-12-25T18:42:49.231Z,67.90
2018-12-25T18:45:16.989Z,67.75
2018-12-25T18:47:44.750Z,67.72
2018-12-25T18:50:12.494Z,68.67
2018-12-25T18:52:40.717Z,68.20
2018-12-25T18:55:08.488Z,67.72
2018-12-25T18:57:36.458Z,67.93
2018-12-25T19:00:06.780Z,67.81
2018-12-25T19:02:34.548Z,68.25
2018-12-25T19:05:02.299Z,68.39
2018-12-25T19:07:30.316Z,69.29
2018-12-25T19:09:58.114Z,69.17
2018-12-25T19:12:25.854Z,68.66
2018-12-25T19:15:22.927Z,67.76
2018-12-25T19:17:52.646Z,68.26
2018-12-25T19:20:22.352Z,68.07
2018-12-25T19:22:50.355Z,68.11
2018-12-25T19:25:18.136Z,68.20
2018-12-25T19:27:46.346Z,68.19
2018-12-25T19:30:14.584Z,68.30
2018-12-25T19:32:43.821Z,68.36
2018-12-25T19:35:11.808Z,69.09
2018-12-25T19:37:40.794Z,69.09
2018-12-25T19:40:08.599Z,68.46
2018-12-25T19:42:36.844Z,68.26
2018-12-25T19:45:07.467Z,68.49
2018-12-25T19:47:35.239Z,69.11
2018-12-25T19:50:03.486Z,68.48
2018-12-25T19:52:31.753Z,68.96
2018-12-25T19:54:59.561Z,67.92
2018-12-25T19:57:27.590Z,67.90
2018-12-25T19:59:55.376Z,68.24
2018-12-25T20:02:26.978Z,68.77
2018-12-25T20:05:58.471Z,69.08
2018-12-25T20:09:04.993Z,69.99
2018-12-25T20:12:06.591Z,70.50
2018-12-25T20:15:18.281Z,70.87
2018-12-25T20:18:35.969Z,71.35
2018-12-25T20:21:58.625Z,71.73
2018-12-25T20:25:18.142Z,72.06
2018-12-25T20:28:22.091Z,71.74
2018-12-25T20:31:48.559Z,71.81
2018-12-25T20:34:31.527Z,72.36
2018-12-25T20:38:11.760Z,72.78
2018-12-25T20:41:55.582Z,72.61
2018-12-25T20:45:28.335Z,72.44
2018-12-25T20:48:51.808Z,72.98
2018-12-25T20:52:24.237Z,73.25
2018-12-25T20:56:01.109Z,72.56
2018-12-25T20:59:30.668Z,71.97
2018-12-25T21:02:56.918Z,72.36
2018-12-25T21:06:42.407Z,72.20
2018-12-25T21:10:19.698Z,72.38
2018-12-25T21:13:59.678Z,71.09
2018-12-25T21:17:45.870Z,71.78
2018-12-25T21:21:42.892Z,71.80
2018-12-25T21:25:09.743Z,71.17
2018-12-25T21:27:33.310Z,72.12
2018-12-25T21:30:07.224Z,70.95
2018-12-25T21:32:42.629Z,70.81
2018-12-25T21:35:30.073Z,71.46
2018-12-25T21:37:58.213Z,71.42
2018-12-25T21:40:26.737Z,72.54
2018-12-25T21:42:55.849Z,71.68
2018-12-25T21:45:23.802Z,71.37
2018-12-25T21:47:52.989Z,70.87
2018-12-25T21:50:21.911Z,70.46
2018-12-25T21:52:51.053Z,70.61
2018-12-25T21:55:19.144Z,70.55
2018-12-25T21:57:48.515Z,70.83
2018-12-25T22:00:21.140Z,70.79
2018-12-25T22:02:49.476Z,70.93
2018-12-25T22:05:17.565Z,70.97
2018-12-25T22:07:45.347Z,70.83
2018-12-25T22:10:15.979Z,71.24
2018-12-25T22:12:43.754Z,70.43
2018-12-25T22:15:11.819Z,70.85
2018-12-25T22:17:39.805Z,71.30
2018-12-25T22:20:35.151Z,70.77
2018-12-25T22:23:03.829Z,71.02
2018-12-25T22:25:31.632Z,70.98
2018-12-25T22:27:59.490Z,71.16
2018-12-25T22:30:28.805Z,70.77
2018-12-25T22:32:56.558Z,70.43
2018-12-25T22:35:24.490Z,71.15
2018-12-25T22:37:52.315Z,70.87
2018-12-25T22:40:20.100Z,70.67
2018-12-25T22:42:47.955Z,70.61
2018-12-25T22:45:15.893Z,70.17
2018-12-25T22:47:43.667Z,70.19
2018-12-25T22:50:11.432Z,70.25
2018-12-25T22:52:39.400Z,70.33
2018-12-25T22:55:08.750Z,70.78
2018-12-25T22:57:36.799Z,70.26
2018-12-25T23:00:11.430Z,70.93
2018-12-25T23:02:39.235Z,70.76
2018-12-25T23:05:07.144Z,70.77
2018-12-25T23:07:35.231Z,70.56
2018-12-25T23:10:03.610Z,71.22
2018-12-25T23:12:32.031Z,70.76
2018-12-25T23:15:00.027Z,70.75
2018-12-25T23:17:27.836Z,70.24
2018-12-25T23:19:55.604Z,70.41
2018-12-25T23:22:23.619Z,70.75
2018-12-25T23:24:51.377Z,70.42
2018-12-25T23:27:19.165Z,70.67
2018-12-25T23:29:46.999Z,69.85
2018-12-25T23:32:14.916Z,70.40
2018-12-25T23:34:44.315Z,70.09
2018-12-25T23:37:12.322Z,70.38
2018-12-25T23:39:40.409Z,70.08
2018-12-25T23:42:08.447Z,70.10
2018-12-25T23:44:36.212Z,70.38
2018-12-25T23:47:04.202Z,70.26
2018-12-25T23:49:31.997Z,70.29
2018-12-25T23:51:59.959Z,70.71
2018-12-25T23:54:27.740Z,70.31
2018-12-25T23:56:55.668Z,70.94
2018-12-25T23:59:23.435Z,71.02
